Time;durP1;ratioP1;P1;durP2;ratioP2;P2;SDS_P1;SDS_P2;PMS_P1;PMS_P2;Temp;Humidity;BMP_temperature;BMP_pressure;BME280_temperature;BME280_humidity;BME280_pressure;Samples;Min_cycle;Max_cycle;Signal;HPM_P1;HPM_P2
2021/06/02 00:00:11;;;;;;;4.15;2.50;;;;;;;;;;5110540;28;20032;-70
2021/06/02 00:06:14;;;;;;;4.53;2.50;;;;;;;;;;5110542;27;20461;-70
2021/06/02 00:10:18;;;;;;;5.72;3.38;;;;;;;;;;5130538;27;20317;-70
2021/06/02 00:12:45;;;;;;;5.07;3.03;;;;;;;;;;5110427;28;20027;-70
2021/06/02 00:17:03;;;;;;;4.50;3.10;;;;;;;;;;5069524;28;20403;-69
2021/06/02 00:19:29;;;;;;;5.47;2.67;;;;;;;;;;5070062;28;20032;-70
2021/06/02 00:22:22;;;;;;;5.38;3.08;;;;;;;;;;5110390;27;20916;-70
2021/06/02 00:28:35;;;;;;;5.88;3.03;;;;;;;;;;5110422;27;20469;-70
2021/06/02 00:32:50;;;;;;;4.00;2.75;;;;;;;;;;5110428;27;20380;-70
2021/06/02 00:35:17;;;;;;;5.40;3.22;;;;;;;;;;5109177;28;20024;-70
2021/06/02 00:37:43;;;;;;;6.60;3.53;;;;;;;;;;5110194;28;20028;-70
2021/06/02 00:40:16;;;;;;;5.30;2.95;;;;;;;;;;5110610;28;20028;-71
2021/06/02 00:43:04;;;;;;;5.07;2.85;;;;;;;;;;5110442;27;20826;-71
2021/06/02 00:45:32;;;;;;;5.03;3.13;;;;;;;;;;5108802;28;20032;-71
2021/06/02 00:48:44;;;;;;;5.55;3.00;;;;;;;;;;5090576;27;20386;-70
2021/06/02 00:51:11;;;;;;;4.13;2.30;;;;;;;;;;5105321;28;20089;-70
2021/06/02 00:53:38;;;;;;;4.72;3.10;;;;;;;;;;5090066;28;20078;-70
2021/06/02 00:56:05;;;;;;;5.45;3.15;;;;;;;;;;5090089;28;20025;-70
2021/06/02 00:58:33;;;;;;;5.53;3.10;;;;;;;;;;5088513;28;20534;-70
2021/06/02 01:01:00;;;;;;;6.75;3.85;;;;;;;;;;5088792;28;20029;-70
2021/06/02 01:03:28;;;;;;;5.63;2.85;;;;;;;;;;5089907;28;20368;-70
2021/06/02 01:05:56;;;;;;;4.18;2.67;;;;;;;;;;5089380;28;20020;-70
2021/06/02 01:08:24;;;;;;;4.43;2.65;;;;;;;;;;5089745;28;20100;-70
2021/06/02 01:11:49;;;;;;;3.72;2.67;;;;;;;;;;5109999;27;20803;-69
2021/06/02 01:14:16;;;;;;;5.20;2.80;;;;;;;;;;5110561;28;20019;-70
2021/06/02 01:16:42;;;;;;;4.05;2.67;;;;;;;;;;5110910;28;20425;-69
2021/06/02 01:19:13;;;;;;;5.97;2.80;;;;;;;;;;5110504;28;20100;-69
2021/06/02 01:21:57;;;;;;;5.53;2.80;;;;;;;;;;5110401;28;20073;-70
2021/06/02 01:24:28;;;;;;;4.75;2.60;;;;;;;;;;5108985;28;20110;-69
2021/06/02 01:26:56;;;;;;;5.47;2.45;;;;;;;;;;5109832;28;20024;-70
2021/06/02 01:29:22;;;;;;;4.72;2.90;;;;;;;;;;5110214;28;20023;-70
2021/06/02 01:32:07;;;;;;;6.20;4.07;;;;;;;;;;5110164;28;20034;-70
2021/06/02 01:34:33;;;;;;;4.65;3.00;;;;;;;;;;5108396;28;20484;-70
2021/06/02 01:37:15;;;;;;;4.05;2.60;;;;;;;;;;5110221;28;20435;-70
2021/06/02 01:40:00;;;;;;;4.55;2.65;;;;;;;;;;5108928;28;20024;-70
2021/06/02 01:42:38;;;;;;;4.97;2.90;;;;;;;;;;5109935;28;20081;-70
2021/06/02 01:45:14;;;;;;;5.88;3.05;;;;;;;;;;5108577;28;20111;-70
2021/06/02 01:47:50;;;;;;;4.30;2.28;;;;;;;;;;5109451;28;20035;-69
2021/06/02 01:50:25;;;;;;;4.25;2.88;;;;;;;;;;5109787;28;20064;-70
2021/06/02 01:53:16;;;;;;;5.13;2.50;;;;;;;;;;5108541;28;20180;-70
2021/06/02 01:55:42;;;;;;;5.40;2.97;;;;;;;;;;5109460;28;20020;-70
2021/06/02 01:58:26;;;;;;;4.75;2.90;;;;;;;;;;5109865;28;20020;-70
2021/06/02 02:01:18;;;;;;;5.95;3.22;;;;;;;;;;5107873;28;20032;-69
2021/06/02 02:03:59;;;;;;;6.88;3.67;;;;;;;;;;5109548;28;20027;-70
2021/06/02 02:06:31;;;;;;;5.22;3.33;;;;;;;;;;5108250;28;20396;-70
2021/06/02 02:09:06;;;;;;;5.95;3.72;;;;;;;;;;5109253;28;20024;-69
2021/06/02 02:11:32;;;;;;;5.78;3.17;;;;;;;;;;5109079;28;20172;-69
2021/06/02 02:14:22;;;;;;;6.05;3.40;;;;;;;;;;5108101;28;20024;-69
2021/06/02 02:16:57;;;;;;;4.60;3.30;;;;;;;;;;5109084;28;20024;-70
2021/06/02 02:19:39;;;;;;;4.90;3.08;;;;;;;;;;5108063;28;20016;-70
2021/06/02 02:22:25;;;;;;;6.53;3.58;;;;;;;;;;5100927;28;20537;-69
2021/06/02 02:24:57;;;;;;;4.93;3.15;;;;;;;;;;5094102;28;20023;-69
2021/06/02 02:27:26;;;;;;;6.45;3.95;;;;;;;;;;5095576;28;20024;-69
2021/06/02 02:29:53;;;;;;;6.55;3.55;;;;;;;;;;5095005;28;20430;-69
2021/06/02 02:32:37;;;;;;;5.05;3.00;;;;;;;;;;5094173;28;20051;-70
2021/06/02 02:35:09;;;;;;;7.30;3.60;;;;;;;;;;5095402;28;20024;-70
2021/06/02 02:37:54;;;;;;;4.35;2.60;;;;;;;;;;5095113;28;20031;-70
2021/06/02 02:40:39;;;;;;;5.60;3.42;;;;;;;;;;5095354;28;20024;-69
2021/06/02 02:43:12;;;;;;;5.57;3.63;;;;;;;;;;5094956;28;20048;-69
2021/06/02 02:45:44;;;;;;;10.30;3.63;;;;;;;;;;5095289;28;20372;-69
2021/06/02 02:48:29;;;;;;;4.75;3.17;;;;;;;;;;5093897;28;20132;-69
2021/06/02 02:51:10;;;;;;;7.05;3.45;;;;;;;;;;5094610;28;20063;-69
2021/06/02 02:53:42;;;;;;;6.03;3.10;;;;;;;;;;5095255;28;20527;-70
2021/06/02 02:56:10;;;;;;;4.85;2.95;;;;;;;;;;5098070;28;20032;-70
2021/06/02 02:58:43;;;;;;;4.80;2.78;;;;;;;;;;5096498;28;20024;-70
2021/06/02 03:01:25;;;;;;;5.43;2.97;;;;;;;;;;5095023;28;20484;-70
2021/06/02 03:04:00;;;;;;;4.63;2.80;;;;;;;;;;5093456;28;20035;-69
2021/06/02 03:06:31;;;;;;;5.25;2.85;;;;;;;;;;5094444;28;20507;-70
2021/06/02 03:09:03;;;;;;;5.97;3.28;;;;;;;;;;5094747;28;20028;-70
2021/06/02 03:11:32;;;;;;;5.88;3.45;;;;;;;;;;5094147;28;20051;-69
2021/06/02 03:14:06;;;;;;;6.35;3.72;;;;;;;;;;5094626;28;20358;-69
2021/06/02 03:16:32;;;;;;;;;;;;;;;;;;5095473;28;20531;-70
2021/06/02 03:18:58;;;;;;;5.38;3.20;;;;;;;;;;5094111;28;19999;-70
2021/06/02 03:21:24;;;;;;;5.10;3.20;;;;;;;;;;5094488;28;20027;-69
2021/06/02 03:23:59;;;;;;;7.45;3.80;;;;;;;;;;5094453;28;20020;-70
2021/06/02 03:26:35;;;;;;;8.52;3.88;;;;;;;;;;5094084;28;20500;-70
2021/06/02 03:29:04;;;;;;;5.30;3.30;;;;;;;;;;5094245;28;20024;-70
2021/06/02 03:31:30;;;;;;;5.57;3.58;;;;;;;;;;5094155;28;20111;-70
2021/06/02 03:34:15;;;;;;;9.18;4.00;;;;;;;;;;5092906;28;20028;-70
2021/06/02 03:36:47;;;;;;;6.45;3.72;;;;;;;;;;5092990;28;20024;-70
2021/06/02 03:39:18;;;;;;;7.20;3.93;;;;;;;;;;5092815;28;20100;-71
2021/06/02 03:41:50;;;;;;;5.75;3.13;;;;;;;;;;5094090;28;20328;-70
2021/06/02 03:44:28;;;;;;;8.37;3.77;;;;;;;;;;5092674;28;20051;-70
2021/06/02 03:47:13;;;;;;;6.95;3.75;;;;;;;;;;5093532;28;20051;-70
2021/06/02 03:49:41;;;;;;;8.30;3.75;;;;;;;;;;5093732;28;20020;-70
2021/06/02 03:52:10;;;;;;;5.85;3.50;;;;;;;;;;5092628;28;20560;-70
2021/06/02 03:54:53;;;;;;;6.97;4.05;;;;;;;;;;5092226;28;20455;-70
2021/06/02 03:57:38;;;;;;;7.78;4.28;;;;;;;;;;5093757;28;20020;-70
2021/06/02 04:00:05;;;;;;;6.82;4.20;;;;;;;;;;5092302;28;20035;-70
2021/06/02 04:02:50;;;;;;;7.75;4.32;;;;;;;;;;5091923;28;20016;-70
2021/06/02 04:05:22;;;;;;;8.90;3.80;;;;;;;;;;5093615;28;20027;-70
2021/06/02 04:07:48;;;;;;;7.82;4.10;;;;;;;;;;5092176;28;20020;-70
2021/06/02 04:10:25;;;;;;;7.63;3.95;;;;;;;;;;5093283;28;20122;-71
2021/06/02 04:13:08;;;;;;;7.35;4.10;;;;;;;;;;5093770;28;20020;-70
2021/06/02 04:15:37;;;;;;;9.43;4.43;;;;;;;;;;5093145;28;20031;-70
2021/06/02 04:18:04;;;;;;;7.07;4.28;;;;;;;;;;5093409;28;20016;-70
2021/06/02 04:20:30;;;;;;;6.68;4.13;;;;;;;;;;5092138;28;20028;-70
2021/06/02 04:22:58;;;;;;;6.97;4.22;;;;;;;;;;5092965;28;20115;-70
2021/06/02 04:25:24;;;;;;;11.70;4.95;;;;;;;;;;5093313;28;20062;-70
2021/06/02 04:30:38;;;;;;;7.07;4.30;;;;;;;;;;5110205;27;20875;-70
2021/06/02 04:33:06;;;;;;;7.25;3.92;;;;;;;;;;5109365;28;20369;-70
2021/06/02 04:35:32;;;;;;;8.10;3.83;;;;;;;;;;5108813;28;20051;-71
2021/06/02 04:39:02;;;;;;;6.00;3.60;;;;;;;;;;5172562;27;20311;-70
2021/06/02 04:42:22;;;;;;;8.50;4.35;;;;;;;;;;5069898;28;20423;-71
2021/06/02 04:44:50;;;;;;;8.30;3.60;;;;;;;;;;5068271;28;20028;-71
2021/06/02 04:47:18;;;;;;;7.80;4.40;;;;;;;;;;5069862;28;20024;-71
2021/06/02 04:49:53;;;;;;;6.25;3.85;;;;;;;;;;5069353;28;20092;-71
2021/06/02 04:52:33;;;;;;;5.72;3.60;;;;;;;;;;5110576;27;21041;-70
2021/06/02 04:57:17;;;;;;;7.13;4.03;;;;;;;;;;5109965;27;20814;-71
2021/06/02 04:59:50;;;;;;;6.43;3.93;;;;;;;;;;5110554;28;20383;-71
2021/06/02 05:03:37;;;;;;;7.15;3.50;;;;;;;;;;5130953;27;20313;-69
2021/06/02 05:06:09;;;;;;;8.02;3.63;;;;;;;;;;5110667;28;20032;-67
2021/06/02 05:08:59;;;;;;;5.65;3.45;;;;;;;;;;5092351;28;20465;-68
2021/06/02 05:12:55;;;;;;;7.57;4.38;;;;;;;;;;5110180;27;20407;-68
2021/06/02 05:15:24;;;;;;;7.72;3.53;;;;;;;;;;5110412;28;20496;-68
2021/06/02 05:17:59;;;;;;;8.18;3.50;;;;;;;;;;5110051;28;20046;-71
2021/06/02 05:24:35;;;;;;;6.68;3.38;;;;;;;;;;5108311;27;20509;-67
2021/06/02 05:30:17;;;;;;;8.18;3.75;;;;;;;;;;5108499;27;20397;-68
2021/06/02 05:33:06;;;;;;;6.88;3.35;;;;;;;;;;5069090;28;20387;-66
2021/06/02 05:35:49;;;;;;;7.50;4.00;;;;;;;;;;5069204;28;20024;-67
2021/06/02 05:38:22;;;;;;;8.50;5.00;;;;;;;;;;5067647;28;20079;-67
2021/06/02 05:40:50;;;;;;;7.10;3.33;;;;;;;;;;5069045;28;20358;-68
2021/06/02 05:43:27;;;;;;;7.00;3.50;;;;;;;;;;5068348;28;20025;-68
2021/06/02 05:46:03;;;;;;;8.68;3.92;;;;;;;;;;5067694;28;20025;-67
2021/06/02 05:48:44;;;;;;;8.75;3.83;;;;;;;;;;5067708;28;20025;-68
2021/06/02 05:53:41;;;;;;;7.95;3.05;;;;;;;;;;5109158;27;20404;-67
2021/06/02 05:56:22;;;;;;;7.82;4.50;;;;;;;;;;5108760;28;20123;-69
2021/06/02 06:01:23;;;;;;;7.07;3.25;;;;;;;;;;5150718;27;20412;-68
2021/06/02 06:04:07;;;;;;;5.43;3.17;;;;;;;;;;5151659;27;20026;-68
2021/06/02 06:07:44;;;;;;;6.45;3.53;;;;;;;;;;5108564;27;20449;-68
2021/06/02 06:11:40;;;;;;;10.27;3.33;;;;;;;;;;5107919;27;20434;-67
2021/06/02 06:14:06;;;;;;;6.95;3.20;;;;;;;;;;5109684;28;20035;-68
2021/06/02 06:16:51;;;;;;;7.60;3.53;;;;;;;;;;5114550;28;20027;-67
2021/06/02 06:19:30;;;;;;;6.15;3.25;;;;;;;;;;5129847;28;20023;-64
2021/06/02 06:25:40;;;;;;;9.45;3.58;;;;;;;;;;5110535;27;20446;-70
2021/06/02 06:28:10;;;;;;;9.23;3.20;;;;;;;;;;5108874;28;20115;-70
2021/06/02 06:30:39;;;;;;;10.15;3.10;;;;;;;;;;5110247;28;20042;-73
2021/06/02 06:33:27;;;;;;;4.63;2.38;;;;;;;;;;5108260;28;20028;-72
2021/06/02 06:35:55;;;;;;;5.03;2.65;;;;;;;;;;5091510;28;20543;-71
2021/06/02 06:38:22;;;;;;;4.85;2.38;;;;;;;;;;5109931;28;20035;-74
2021/06/02 06:40:53;;;;;;;5.43;2.47;;;;;;;;;;5107961;28;20024;-71
2021/06/02 06:43:21;;;;;;;7.60;2.90;;;;;;;;;;5108885;28;20573;-71
2021/06/02 06:45:48;;;;;;;4.88;3.05;;;;;;;;;;5107590;28;20108;-72
2021/06/02 06:48:21;;;;;;;10.10;2.60;;;;;;;;;;5109007;28;20020;-73
2021/06/02 06:50:54;;;;;;;7.75;3.05;;;;;;;;;;5106786;28;20057;-73
2021/06/02 06:53:21;;;;;;;6.97;2.50;;;;;;;;;;5103952;28;20020;-73
2021/06/02 06:57:11;;;;;;;10.13;2.97;;;;;;;;;;5067295;28;20951;-72
2021/06/02 06:59:47;;;;;;;14.00;3.67;;;;;;;;;;5106578;27;20709;-71
2021/06/02 07:02:14;;;;;;;4.97;2.33;;;;;;;;;;5121976;28;20136;-72
2021/06/02 07:04:41;;;;;;;8.07;2.72;;;;;;;;;;5116801;28;20053;-72
2021/06/02 07:07:08;;;;;;;3.72;2.40;;;;;;;;;;5113799;28;20020;-71
2021/06/02 07:09:35;;;;;;;12.32;3.10;;;;;;;;;;5110493;28;20020;-71
2021/06/02 07:12:01;;;;;;;6.05;2.40;;;;;;;;;;5118594;28;20019;-72
2021/06/02 07:14:30;;;;;;;4.55;2.40;;;;;;;;;;5114459;28;20027;-71
2021/06/02 07:18:37;;;;;;;7.10;2.45;;;;;;;;;;5109477;27;20385;-75
2021/06/02 07:21:03;;;;;;;7.53;2.45;;;;;;;;;;5110427;28;20020;-71
2021/06/02 07:23:30;;;;;;;3.75;1.80;;;;;;;;;;5110278;28;20019;-73
2021/06/02 07:25:57;;;;;;;7.55;2.10;;;;;;;;;;5110035;28;20054;-74
2021/06/02 07:28:30;;;;;;;3.60;2.10;;;;;;;;;;5110101;28;20593;-71
2021/06/02 07:30:56;;;;;;;7.57;2.20;;;;;;;;;;5109536;28;20028;-72
2021/06/02 07:35:08;;;;;;;4.70;2.47;;;;;;;;;;5110130;27;20419;-72
2021/06/02 07:40:22;;;;;;;3.85;2.00;;;;;;;;;;5067598;28;20471;-71
2021/06/02 07:45:51;;;;;;;11.32;2.25;;;;;;;;;;5130366;27;20309;-72
2021/06/02 07:49:53;;;;;;;6.97;2.28;;;;;;;;;;5109850;27;20388;-69
2021/06/02 07:52:19;;;;;;;3.28;1.88;;;;;;;;;;5110070;28;20024;-71
2021/06/02 07:56:35;;;;;;;5.38;2.13;;;;;;;;;;5110048;27;20862;-71
2021/06/02 07:59:01;;;;;;;6.00;2.13;;;;;;;;;;5110041;28;20541;-68
2021/06/02 08:04:56;;;;;;;8.15;2.35;;;;;;;;;;5110081;27;20913;-70
2021/06/02 08:07:22;;;;;;;3.47;2.42;;;;;;;;;;5110228;28;20063;-70
2021/06/02 08:10:09;;;;;;;3.67;2.10;;;;;;;;;;5069435;28;20392;-70
2021/06/02 08:12:35;;;;;;;3.58;1.90;;;;;;;;;;5068117;28;20457;-71
2021/06/02 08:15:01;;;;;;;4.20;2.00;;;;;;;;;;5069026;28;20520;-70
2021/06/02 08:18:24;;;;;;;5.03;2.88;;;;;;;;;;5069341;28;20399;-70
2021/06/02 08:20:50;;;;;;;3.30;1.70;;;;;;;;;;5069265;28;20024;-70
2021/06/02 08:23:51;;;;;;;4.63;1.77;;;;;;;;;;5110115;27;20457;-70
2021/06/02 08:27:15;;;;;;;6.82;2.00;;;;;;;;;;5110496;27;20385;-71
2021/06/02 08:29:41;;;;;;;6.55;2.30;;;;;;;;;;5109404;28;20026;-70
2021/06/02 08:32:08;;;;;;;3.97;1.88;;;;;;;;;;5110087;28;20012;-71
2021/06/02 08:36:49;;;;;;;5.22;1.85;;;;;;;;;;5108901;27;20474;-75
2021/06/02 08:39:16;;;;;;;4.50;1.48;;;;;;;;;;5109976;28;20081;-75
2021/06/02 08:41:42;;;;;;;4.82;2.40;;;;;;;;;;5110360;28;20099;-69
2021/06/02 08:46:35;;;;;;;2.10;1.38;;;;;;;;;;5065876;28;20968;-68
2021/06/02 08:49:02;;;;;;;2.78;1.27;;;;;;;;;;5066736;28;20094;-67
2021/06/02 08:51:28;;;;;;;2.28;1.23;;;;;;;;;;5069406;28;20101;-68
2021/06/02 08:53:56;;;;;;;1.92;1.33;;;;;;;;;;5069560;28;20033;-66
2021/06/02 08:56:23;;;;;;;3.25;1.67;;;;;;;;;;5067575;28;20435;-68
2021/06/02 08:58:49;;;;;;;2.42;1.50;;;;;;;;;;5069371;28;20021;-70
2021/06/02 09:01:15;;;;;;;5.70;1.55;;;;;;;;;;5068626;28;20473;-67
2021/06/02 09:03:41;;;;;;;2.10;1.33;;;;;;;;;;5068927;28;20467;-67
2021/06/02 09:06:09;;;;;;;1.92;1.13;;;;;;;;;;5069300;28;20094;-67
2021/06/02 09:08:38;;;;;;;4.70;1.88;;;;;;;;;;5067806;28;20048;-67
2021/06/02 09:11:12;;;;;;;3.10;1.67;;;;;;;;;;5068889;28;20025;-67
2021/06/02 09:15:00;;;;;;;10.40;2.10;;;;;;;;;;5110097;27;20405;-69
2021/06/02 09:17:26;;;;;;;7.28;1.73;;;;;;;;;;5109810;28;20540;-68
2021/06/02 09:21:18;;;;;;;4.65;1.58;;;;;;;;;;5110190;27;20499;-68
2021/06/02 09:23:45;;;;;;;4.50;2.13;;;;;;;;;;5110302;28;20019;-68
2021/06/02 09:26:13;;;;;;;3.80;1.67;;;;;;;;;;5109670;28;20099;-70
2021/06/02 09:28:59;;;;;;;3.92;1.60;;;;;;;;;;5103463;28;20065;-69
2021/06/02 09:31:36;;;;;;;3.90;2.00;;;;;;;;;;5104101;28;20034;-70
2021/06/02 09:34:26;;;;;;;5.30;1.98;;;;;;;;;;5106183;27;20408;-69
2021/06/02 09:36:53;;;;;;;2.35;1.35;;;;;;;;;;5105599;28;20034;-69
2021/06/02 09:39:21;;;;;;;4.80;1.48;;;;;;;;;;5107306;28;20489;-70
2021/06/02 09:43:49;;;;;;;3.80;1.50;;;;;;;;;;5068753;28;20395;-72
2021/06/02 09:46:59;;;;;;;5.88;1.80;;;;;;;;;;5109682;27;20502;-73
2021/06/02 09:49:26;;;;;;;1.15;1.00;;;;;;;;;;5110092;28;20024;-75
2021/06/02 09:51:52;;;;;;;6.47;1.67;;;;;;;;;;5109964;28;20099;-73
2021/06/02 09:54:21;;;;;;;4.80;1.27;;;;;;;;;;5108221;28;20108;-71
2021/06/02 09:56:48;;;;;;;3.83;1.50;;;;;;;;;;5108816;28;20028;-73
2021/06/02 09:59:15;;;;;;;3.90;1.40;;;;;;;;;;5109541;28;20548;-73
2021/06/02 10:03:00;;;;;;;2.65;1.60;;;;;;;;;;5110349;27;20827;-73
2021/06/02 10:05:40;;;;;;;3.20;1.35;;;;;;;;;;5109940;28;20028;-72
2021/06/02 10:08:06;;;;;;;6.13;2.13;;;;;;;;;;5108400;28;20023;-72
2021/06/02 10:10:33;;;;;;;5.28;1.65;;;;;;;;;;5108663;28;20031;-72
2021/06/02 10:13:04;;;;;;;4.20;1.50;;;;;;;;;;5108674;28;20028;-72
2021/06/02 10:15:35;;;;;;;2.53;1.23;;;;;;;;;;5108167;28;20468;-72
2021/06/02 10:18:02;;;;;;;1.88;1.05;;;;;;;;;;5108552;28;20048;-73
2021/06/02 10:20:28;;;;;;;3.67;1.25;;;;;;;;;;5109427;28;20472;-71
2021/06/02 10:22:59;;;;;;;2.90;1.50;;;;;;;;;;5109187;28;20039;-74
2021/06/02 10:26:39;;;;;;;5.45;1.60;;;;;;;;;;5108406;27;20416;-72
2021/06/02 10:29:06;;;;;;;3.20;1.20;;;;;;;;;;5107803;28;20032;-71
2021/06/02 10:32:58;;;;;;;4.97;1.95;;;;;;;;;;5107655;27;20420;-72
2021/06/02 10:35:25;;;;;;;3.05;1.40;;;;;;;;;;5109556;28;20024;-76
2021/06/02 10:37:53;;;;;;;1.88;1.30;;;;;;;;;;5110268;28;20016;-73
2021/06/02 10:40:21;;;;;;;3.78;1.60;;;;;;;;;;5109053;28;20024;-74
2021/06/02 10:42:50;;;;;;;3.78;1.40;;;;;;;;;;5108491;28;20026;-73
2021/06/02 10:45:30;;;;;;;7.20;2.17;;;;;;;;;;5109664;28;20031;-71
2021/06/02 10:48:01;;;;;;;4.15;1.80;;;;;;;;;;5108490;28;20066;-71
2021/06/02 10:50:28;;;;;;;2.30;1.20;;;;;;;;;;5107672;28;20024;-71
2021/06/02 10:52:54;;;;;;;3.80;1.13;;;;;;;;;;5108558;28;20036;-74
2021/06/02 10:55:34;;;;;;;2.35;1.35;;;;;;;;;;5108757;28;20089;-74
2021/06/02 10:58:19;;;;;;;4.88;1.45;;;;;;;;;;5110354;28;20016;-73
2021/06/02 11:00:46;;;;;;;4.03;2.08;;;;;;;;;;5109968;28;20024;-72
2021/06/02 11:03:19;;;;;;;4.72;1.65;;;;;;;;;;5108525;28;20032;-74
2021/06/02 11:05:45;;;;;;;2.25;1.13;;;;;;;;;;5106426;28;20107;-71
2021/06/02 11:08:11;;;;;;;3.30;1.50;;;;;;;;;;5108909;28;20372;-71
2021/06/02 11:10:38;;;;;;;2.75;1.58;;;;;;;;;;5109064;28;20024;-71
2021/06/02 11:13:06;;;;;;;2.70;1.50;;;;;;;;;;5107539;28;20453;-71
2021/06/02 11:15:35;;;;;;;3.03;1.38;;;;;;;;;;5107369;28;20051;-70
2021/06/02 11:18:11;;;;;;;2.00;1.13;;;;;;;;;;5108556;28;20073;-72
2021/06/02 11:20:47;;;;;;;4.75;1.73;;;;;;;;;;5108894;28;20492;-70
2021/06/02 11:23:15;;;;;;;7.78;1.50;;;;;;;;;;5107779;28;20028;-70
2021/06/02 11:25:41;;;;;;;3.40;1.77;;;;;;;;;;5108940;28;20028;-70
2021/06/02 11:28:12;;;;;;;3.30;1.77;;;;;;;;;;5107287;28;20023;-73
2021/06/02 11:30:38;;;;;;;2.78;1.17;;;;;;;;;;5108846;28;20028;-71
2021/06/02 11:33:09;;;;;;;3.92;1.80;;;;;;;;;;5109302;28;20032;-69
2021/06/02 11:35:55;;;;;;;3.38;1.52;;;;;;;;;;5107887;28;20016;-71
2021/06/02 11:38:24;;;;;;;2.88;1.52;;;;;;;;;;5108826;28;20426;-71
2021/06/02 11:40:51;;;;;;;2.90;1.77;;;;;;;;;;5107387;28;20031;-70
2021/06/02 11:43:19;;;;;;;5.10;1.48;;;;;;;;;;5100978;28;20072;-71
2021/06/02 11:45:47;;;;;;;1.92;1.50;;;;;;;;;;5094918;28;20028;-71
2021/06/02 11:48:19;;;;;;;3.13;1.50;;;;;;;;;;5094906;28;20016;-70
2021/06/02 11:50:45;;;;;;;4.20;1.60;;;;;;;;;;5095262;28;20059;-70
2021/06/02 11:53:11;;;;;;;3.85;1.77;;;;;;;;;;5093375;28;20024;-72
2021/06/02 11:55:39;;;;;;;2.88;1.65;;;;;;;;;;5092671;28;20024;-71
2021/06/02 11:58:05;;;;;;;1.83;1.35;;;;;;;;;;5087167;28;20028;-71
2021/06/02 12:00:33;;;;;;;3.28;1.83;;;;;;;;;;5088489;28;20026;-71
2021/06/02 12:03:01;;;;;;;3.35;1.80;;;;;;;;;;5091111;28;20024;-73
2021/06/02 12:05:33;;;;;;;4.50;1.58;;;;;;;;;;5094429;28;20103;-70
2021/06/02 12:08:02;;;;;;;2.45;1.60;;;;;;;;;;5094597;28;20024;-71
2021/06/02 12:10:32;;;;;;;4.40;1.38;;;;;;;;;;5094597;28;20604;-72
2021/06/02 12:12:59;;;;;;;5.80;1.85;;;;;;;;;;5094195;28;20427;-73
2021/06/02 12:15:26;;;;;;;2.60;1.20;;;;;;;;;;5093259;28;20024;-72
2021/06/02 12:17:53;;;;;;;3.00;1.40;;;;;;;;;;5094469;28;20055;-71
2021/06/02 12:20:20;;;;;;;1.98;1.17;;;;;;;;;;5094319;28;20019;-72
2021/06/02 12:22:46;;;;;;;2.63;1.40;;;;;;;;;;5093515;28;20065;-71
2021/06/02 12:25:16;;;;;;;3.78;1.42;;;;;;;;;;5094270;28;20051;-72
2021/06/02 12:27:49;;;;;;;4.43;1.65;;;;;;;;;;5094325;28;20020;-72
2021/06/02 12:30:20;;;;;;;6.07;2.00;;;;;;;;;;5094580;28;20077;-74
2021/06/02 12:32:53;;;;;;;3.33;1.27;;;;;;;;;;5094451;28;20102;-74
2021/06/02 12:35:25;;;;;;;3.05;1.33;;;;;;;;;;5094228;28;20028;-73
2021/06/02 12:38:03;;;;;;;2.15;1.13;;;;;;;;;;5094755;28;20049;-72
2021/06/02 12:40:29;;;;;;;3.42;1.42;;;;;;;;;;5094637;28;20020;-72
2021/06/02 12:42:56;;;;;;;5.00;1.20;;;;;;;;;;5092751;28;20016;-72
2021/06/02 12:45:26;;;;;;;5.07;1.40;;;;;;;;;;5093164;28;20024;-72
2021/06/02 12:47:53;;;;;;;4.40;1.20;;;;;;;;;;5094446;28;20495;-72
2021/06/02 12:50:39;;;;;;;2.60;1.20;;;;;;;;;;5092686;28;20032;-72
2021/06/02 12:53:05;;;;;;;3.42;1.35;;;;;;;;;;5094370;28;20032;-73
2021/06/02 12:55:35;;;;;;;2.35;1.38;;;;;;;;;;5092766;28;20016;-73
2021/06/02 12:58:06;;;;;;;4.93;1.05;;;;;;;;;;5094316;28;20024;-72
2021/06/02 13:00:32;;;;;;;2.83;1.30;;;;;;;;;;5094183;28;20507;-72
2021/06/02 13:02:59;;;;;;;2.67;1.20;;;;;;;;;;5093693;28;20384;-72
2021/06/02 13:05:25;;;;;;;3.10;1.00;;;;;;;;;;5094114;28;20027;-73
2021/06/02 13:07:52;;;;;;;5.22;1.92;;;;;;;;;;5094071;28;20384;-72
2021/06/02 13:10:19;;;;;;;6.22;1.70;;;;;;;;;;5092257;28;20028;-73
2021/06/02 13:12:56;;;;;;;4.80;1.25;;;;;;;;;;5093715;28;20032;-72
2021/06/02 13:15:24;;;;;;;4.45;1.58;;;;;;;;;;5092440;28;20024;-72
2021/06/02 13:17:50;;;;;;;1.63;1.15;;;;;;;;;;5092113;28;20028;-72
2021/06/02 13:20:28;;;;;;;1.52;1.10;;;;;;;;;;5093897;28;20047;-72
2021/06/02 13:23:07;;;;;;;1.70;1.05;;;;;;;;;;5092368;28;20023;-72
2021/06/02 13:25:34;;;;;;;1.77;1.20;;;;;;;;;;5093178;28;20481;-72
2021/06/02 13:28:02;;;;;;;2.35;1.17;;;;;;;;;;5091976;28;20111;-71
2021/06/02 13:30:43;;;;;;;7.45;1.38;;;;;;;;;;5092376;28;20584;-72
2021/06/02 13:33:10;;;;;;;1.40;1.10;;;;;;;;;;5093588;28;20048;-72
2021/06/02 13:35:36;;;;;;;6.82;2.35;;;;;;;;;;5092205;28;20369;-72
2021/06/02 13:38:03;;;;;;;2.80;1.20;;;;;;;;;;5093282;28;20052;-72
2021/06/02 13:40:31;;;;;;;1.90;0.95;;;;;;;;;;5093402;28;20023;-71
2021/06/02 13:43:08;;;;;;;1.85;1.00;;;;;;;;;;5093412;28;20016;-70
2021/06/02 13:45:54;;;;;;;1.38;1.00;;;;;;;;;;5093087;28;20059;-72
2021/06/02 13:48:53;;;;;;;3.47;1.20;;;;;;;;;;5093390;28;20020;-72
2021/06/02 13:51:22;;;;;;;1.70;0.90;;;;;;;;;;5058896;28;20393;-73
2021/06/02 13:53:57;;;;;;;1.85;1.13;;;;;;;;;;5093201;28;20028;-72
2021/06/02 13:56:24;;;;;;;5.95;1.65;;;;;;;;;;5091932;28;20024;-72
2021/06/02 13:59:08;;;;;;;1.17;0.90;;;;;;;;;;5093082;28;20035;-72
2021/06/02 14:01:35;;;;;;;2.83;1.20;;;;;;;;;;5091767;28;20024;-72
2021/06/02 14:04:02;;;;;;;1.90;0.77;;;;;;;;;;5092978;28;20031;-73
2021/06/02 14:06:28;;;;;;;2.28;1.15;;;;;;;;;;5091141;28;20024;-73
2021/06/02 14:08:54;;;;;;;4.53;1.90;;;;;;;;;;5092774;28;20495;-72
2021/06/02 14:11:29;;;;;;;2.40;1.00;;;;;;;;;;5092807;28;20036;-71
2021/06/02 14:13:56;;;;;;;2.42;1.38;;;;;;;;;;5092473;28;20042;-71
2021/06/02 14:16:23;;;;;;;5.90;1.20;;;;;;;;;;5092828;28;20028;-71
2021/06/02 14:18:57;;;;;;;3.45;1.30;;;;;;;;;;5092963;28;20426;-72
2021/06/02 14:21:23;;;;;;;2.58;1.10;;;;;;;;;;5092425;28;20016;-71
2021/06/02 14:23:50;;;;;;;1.55;1.08;;;;;;;;;;5092795;28;20024;-71
2021/06/02 14:26:17;;;;;;;2.58;1.13;;;;;;;;;;5091318;28;20024;-71
2021/06/02 14:28:44;;;;;;;1.95;1.10;;;;;;;;;;5090349;28;20076;-71
2021/06/02 14:31:10;;;;;;;3.65;1.10;;;;;;;;;;5091753;28;20036;-71
2021/06/02 14:33:37;;;;;;;1.75;0.93;;;;;;;;;;5091953;28;20027;-71
2021/06/02 14:36:04;;;;;;;5.47;1.40;;;;;;;;;;5092094;28;20373;-71
2021/06/02 14:38:30;;;;;;;2.90;1.25;;;;;;;;;;5092598;28;20024;-71
2021/06/02 14:40:57;;;;;;;2.50;1.00;;;;;;;;;;5092195;28;20016;-71
2021/06/02 14:43:24;;;;;;;3.78;1.10;;;;;;;;;;5092333;28;20028;-71
2021/06/02 14:45:51;;;;;;;1.90;1.00;;;;;;;;;;5091799;28;20219;-71
2021/06/02 14:48:17;;;;;;;2.35;1.73;;;;;;;;;;5090374;28;20024;-72
2021/06/02 14:50:43;;;;;;;1.77;1.00;;;;;;;;;;5089005;28;20016;-72
2021/06/02 14:53:10;;;;;;;2.72;1.10;;;;;;;;;;5089564;28;20078;-72
2021/06/02 14:55:36;;;;;;;2.10;1.17;;;;;;;;;;5090451;28;20492;-72
2021/06/02 14:58:02;;;;;;;3.47;1.40;;;;;;;;;;5089546;28;20438;-72
2021/06/02 15:00:32;;;;;;;1.73;1.20;;;;;;;;;;5089990;28;20067;-72
2021/06/02 15:02:59;;;;;;;6.78;1.73;;;;;;;;;;5091805;28;20021;-71
2021/06/02 15:05:26;;;;;;;6.03;1.20;;;;;;;;;;5092334;28;20426;-71
2021/06/02 15:07:53;;;;;;;2.35;1.00;;;;;;;;;;5092209;28;20078;-72
2021/06/02 15:10:19;;;;;;;3.38;0.95;;;;;;;;;;5091900;28;20371;-72
2021/06/02 15:12:46;;;;;;;2.75;1.30;;;;;;;;;;5092198;28;20449;-71
2021/06/02 15:15:13;;;;;;;4.68;1.52;;;;;;;;;;5092160;28;20072;-72
2021/06/02 15:17:39;;;;;;;3.35;1.48;;;;;;;;;;5090984;28;20062;-71
2021/06/02 15:20:06;;;;;;;7.43;3.65;;;;;;;;;;5094655;28;20028;-71
2021/06/02 15:22:32;;;;;;;4.22;1.55;;;;;;;;;;5095977;28;20064;-71
2021/06/02 15:24:59;;;;;;;3.92;2.47;;;;;;;;;;5094151;28;20547;-71
2021/06/02 15:27:26;;;;;;;5.05;1.27;;;;;;;;;;5095949;28;20103;-71
2021/06/02 15:29:55;;;;;;;5.47;1.20;;;;;;;;;;5095415;28;20024;-71
2021/06/02 15:32:25;;;;;;;2.40;0.82;;;;;;;;;;5095504;28;20044;-71
2021/06/02 15:34:52;;;;;;;0.98;0.70;;;;;;;;;;5095672;28;20016;-71
2021/06/02 15:37:20;;;;;;;4.63;1.48;;;;;;;;;;5095549;28;20046;-72
2021/06/02 15:39:46;;;;;;;3.47;1.20;;;;;;;;;;5094234;28;20107;-72
2021/06/02 15:42:17;;;;;;;5.72;1.45;;;;;;;;;;5095453;28;20028;-71
2021/06/02 15:44:43;;;;;;;3.58;1.63;;;;;;;;;;5093729;28;20031;-71
2021/06/02 15:47:10;;;;;;;2.55;1.13;;;;;;;;;;5095423;28;20016;-71
2021/06/02 15:49:36;;;;;;;4.18;1.40;;;;;;;;;;5094135;28;20024;-72
2021/06/02 15:52:03;;;;;;;2.47;1.35;;;;;;;;;;5095034;28;20507;-72
2021/06/02 15:54:33;;;;;;;2.45;1.10;;;;;;;;;;5095237;28;20024;-72
2021/06/02 15:57:00;;;;;;;1.70;1.15;;;;;;;;;;5095443;28;20047;-71
2021/06/02 15:59:28;;;;;;;2.78;1.20;;;;;;;;;;5094964;28;20020;-72
2021/06/02 16:01:54;;;;;;;2.65;1.20;;;;;;;;;;5095234;28;20020;-71
2021/06/02 16:04:20;;;;;;;6.38;1.33;;;;;;;;;;5095014;28;20537;-71
2021/06/02 16:06:47;;;;;;;3.92;1.48;;;;;;;;;;5094688;28;20028;-71
2021/06/02 16:09:13;;;;;;;2.72;1.30;;;;;;;;;;5095066;28;20022;-71
2021/06/02 16:11:40;;;;;;;4.47;1.48;;;;;;;;;;5094907;28;20036;-71
2021/06/02 16:14:08;;;;;;;2.80;1.35;;;;;;;;;;5094704;28;20020;-70
2021/06/02 16:16:36;;;;;;;5.15;1.55;;;;;;;;;;5095173;28;20023;-70
2021/06/02 16:19:03;;;;;;;2.90;1.30;;;;;;;;;;5094888;28;20020;-70